createdAt,value
2023-07-08T00:02:18.591Z,3.90
2023-07-08T00:04:46.567Z,4.43
2023-07-08T00:07:17.840Z,3.40
2023-07-08T00:09:47.160Z,3.57
2023-07-08T00:12:15.158Z,4.23
2023-07-08T00:14:43.168Z,3.50
2023-07-08T00:17:14.392Z,3.90
2023-07-08T00:19:42.468Z,3.40
2023-07-08T00:22:14.146Z,3.60
2023-07-08T00:24:43.292Z,3.60
2023-07-08T00:27:15.175Z,4.50
2023-07-08T00:29:43.236Z,3.43
2023-07-08T00:32:14.794Z,3.93
2023-07-08T00:34:43.226Z,3.70
2023-07-08T00:37:13.895Z,3.60
2023-07-08T00:39:42.511Z,4.17
2023-07-08T00:42:18.844Z,4.43
2023-07-08T00:44:46.977Z,3.80
2023-07-08T00:47:17.148Z,3.73
2023-07-08T00:49:49.458Z,3.90
2023-07-08T00:52:23.910Z,4.23
2023-07-08T00:54:53.474Z,3.77
2023-07-08T00:57:24.526Z,4.93
2023-07-08T00:59:57.161Z,3.70
2023-07-08T01:02:28.614Z,4.20
2023-07-08T01:05:03.727Z,3.30
2023-07-08T01:07:34.204Z,3.40
2023-07-08T01:10:05.907Z,4.47
2023-07-08T01:12:38.917Z,4.40
2023-07-08T01:15:08.848Z,4.83
2023-07-08T01:17:37.082Z,4.10
2023-07-08T01:20:07.812Z,4.30
2023-07-08T01:22:39.248Z,4.20
2023-07-08T01:25:09.482Z,4.53
2023-07-08T01:27:42.043Z,3.80
2023-07-08T01:30:12.327Z,4.63
2023-07-08T01:32:45.355Z,3.83
2023-07-08T01:35:14.663Z,5.17
2023-07-08T01:37:48.718Z,4.77
2023-07-08T01:40:27.626Z,4.63
2023-07-08T01:42:56.249Z,4.60
2023-07-08T01:45:26.707Z,4.90
2023-07-08T01:47:58.702Z,4.33
2023-07-08T01:50:28.211Z,4.20
2023-07-08T01:53:01.238Z,4.03
2023-07-08T01:55:31.447Z,4.60
2023-07-08T01:57:59.972Z,4.43
2023-07-08T02:00:27.905Z,4.37
2023-07-08T02:02:56.018Z,5.30
2023-07-08T02:05:25.083Z,4.57
2023-07-08T02:07:53.103Z,3.93
2023-07-08T02:10:22.562Z,5.73
2023-07-08T02:12:50.578Z,5.13
2023-07-08T02:15:19.032Z,6.23
2023-07-08T02:17:47.021Z,5.07
2023-07-08T02:20:15.118Z,4.97
2023-07-08T02:22:43.112Z,5.40
2023-07-08T02:25:11.385Z,5.17
2023-07-08T02:27:41.268Z,4.67
2023-07-08T02:30:10.111Z,4.80
2023-07-08T02:32:40.196Z,4.00
2023-07-08T02:35:09.372Z,4.67
2023-07-08T02:37:37.429Z,5.20
2023-07-08T02:40:05.850Z,4.97
2023-07-08T02:42:33.780Z,5.00
2023-07-08T02:45:03.393Z,5.00
2023-07-08T02:47:31.314Z,4.70
2023-07-08T02:49:59.694Z,4.93
2023-07-08T02:52:27.686Z,5.60
2023-07-08T02:54:55.595Z,4.53
2023-07-08T02:57:23.710Z,5.50
2023-07-08T02:59:51.811Z,4.80
2023-07-08T03:02:21.185Z,5.40
2023-07-08T03:04:50.968Z,4.60
2023-07-08T03:07:19.543Z,5.07
2023-07-08T03:09:47.591Z,5.10
2023-07-08T03:12:15.579Z,4.53
2023-07-08T03:14:43.510Z,4.90
2023-07-08T03:17:11.622Z,4.90
2023-07-08T03:19:41.137Z,5.20
2023-07-08T03:22:09.042Z,4.83
2023-07-08T03:24:37.527Z,5.00
2023-07-08T03:27:08.938Z,4.00
2023-07-08T03:29:38.211Z,4.57
2023-07-08T03:32:07.571Z,4.77
2023-07-08T03:34:35.623Z,4.20
2023-07-08T03:37:05.577Z,5.40
2023-07-08T03:39:33.944Z,4.20
2023-07-08T03:42:02.579Z,5.20
2023-07-08T03:44:30.603Z,4.60
2023-07-08T03:46:59.067Z,4.40
2023-07-08T03:49:27.596Z,5.17
2023-07-08T03:51:56.547Z,4.07
2023-07-08T03:54:27.423Z,5.40
2023-07-08T03:56:55.543Z,4.80
2023-07-08T03:59:23.469Z,4.00
2023-07-08T04:01:51.590Z,5.03
2023-07-08T04:04:19.814Z,4.67
2023-07-08T04:06:48.059Z,4.23
2023-07-08T04:09:16.105Z,4.40
2023-07-08T04:11:45.629Z,5.20
2023-07-08T04:14:14.702Z,4.30
2023-07-08T04:16:50.715Z,4.43
2023-07-08T04:19:19.068Z,4.60
2023-07-08T04:21:47.740Z,4.57
2023-07-08T04:24:17.664Z,4.30
2023-07-08T04:26:49.939Z,4.10
2023-07-08T04:29:20.248Z,4.30
2023-07-08T04:31:48.195Z,4.77
2023-07-08T04:34:17.633Z,5.77
2023-07-08T04:36:46.543Z,5.40
2023-07-08T04:39:15.385Z,4.30
2023-07-08T04:41:44.900Z,4.20
2023-07-08T04:44:14.881Z,5.97
2023-07-08T04:46:52.267Z,8.33
2023-07-08T04:49:20.781Z,9.97
2023-07-08T04:51:49.372Z,5.67
2023-07-08T04:54:17.481Z,9.30
2023-07-08T04:56:48.235Z,6.87
2023-07-08T04:59:19.970Z,5.60
2023-07-08T05:01:49.967Z,4.97
2023-07-08T05:04:19.958Z,5.70
2023-07-08T05:06:48.455Z,5.10
2023-07-08T05:09:17.712Z,4.60
2023-07-08T05:11:46.416Z,5.10
2023-07-08T05:14:15.265Z,4.90
2023-07-08T05:16:44.575Z,5.13
2023-07-08T05:19:12.767Z,4.67
2023-07-08T05:21:40.784Z,5.07
2023-07-08T05:24:09.654Z,5.53
2023-07-08T05:26:37.849Z,5.10
2023-07-08T05:29:06.237Z,4.80
2023-07-08T05:34:09.041Z,5.00
2023-07-08T05:36:37.063Z,4.80
2023-07-08T05:39:05.337Z,5.13
2023-07-08T05:41:33.332Z,5.50
2023-07-08T05:44:01.487Z,4.90
2023-07-08T05:46:29.660Z,5.83
2023-07-08T05:48:59.723Z,5.17
2023-07-08T05:51:31.494Z,5.20
2023-07-08T05:53:59.780Z,5.30
2023-07-08T05:56:27.774Z,4.60
2023-07-08T05:58:55.857Z,4.60
2023-07-08T06:01:23.986Z,5.10
2023-07-08T06:03:52.208Z,4.80
2023-07-08T06:06:20.578Z,4.80
2023-07-08T06:08:49.967Z,5.07
2023-07-08T06:11:18.282Z,5.37
2023-07-08T06:13:46.478Z,4.60
2023-07-08T06:16:18.227Z,5.90
2023-07-08T06:18:51.174Z,4.63
2023-07-08T06:21:19.318Z,5.70
2023-07-08T06:23:47.438Z,5.53
2023-07-08T06:26:16.913Z,5.03
2023-07-08T06:28:45.126Z,4.60
2023-07-08T06:31:13.105Z,5.10
2023-07-08T06:33:41.179Z,5.40
2023-07-08T06:36:09.182Z,4.23
2023-07-08T06:38:37.293Z,4.97
2023-07-08T06:41:05.247Z,5.40
2023-07-08T06:43:34.535Z,6.70
2023-07-08T06:46:02.663Z,4.50
2023-07-08T06:48:30.867Z,6.03
2023-07-08T06:50:59.318Z,4.87
2023-07-08T06:53:27.686Z,5.70
2023-07-08T06:55:55.782Z,4.47
2023-07-08T06:58:23.909Z,5.03
2023-07-08T07:00:53.537Z,4.27
2023-07-08T07:03:21.596Z,4.20
2023-07-08T07:05:49.498Z,5.53
2023-07-08T07:08:17.439Z,5.37
2023-07-08T07:10:45.632Z,4.60
2023-07-08T07:13:13.562Z,5.47
2023-07-08T07:15:41.990Z,4.80
2023-07-08T07:18:11.585Z,4.90
2023-07-08T07:20:40.215Z,4.97
2023-07-08T07:23:08.232Z,5.90
2023-07-08T07:25:37.354Z,5.50
2023-07-08T07:28:06.198Z,5.27
2023-07-08T07:30:34.438Z,4.80
2023-07-08T07:33:02.899Z,5.83
2023-07-08T07:35:32.454Z,5.30
2023-07-08T07:38:00.401Z,4.80
2023-07-08T07:40:28.470Z,4.90
2023-07-08T07:42:56.383Z,5.00
2023-07-08T07:45:24.469Z,6.00
2023-07-08T07:47:52.537Z,5.20
2023-07-08T07:50:20.798Z,5.30
2023-07-08T07:52:50.317Z,4.67
2023-07-08T07:55:18.580Z,5.13
2023-07-08T07:57:48.157Z,4.53
2023-07-08T08:00:16.934Z,4.50
2023-07-08T08:02:45.305Z,4.10
2023-07-08T08:05:13.260Z,4.90
2023-07-08T08:07:41.745Z,4.57
2023-07-08T08:10:11.802Z,5.20
2023-07-08T08:12:52.138Z,5.50
2023-07-08T08:15:22.463Z,4.37
2023-07-08T08:17:53.095Z,4.20
2023-07-08T08:20:22.708Z,4.57
2023-07-08T08:22:51.200Z,5.03
2023-07-08T08:25:23.266Z,4.77
2023-07-08T08:27:52.817Z,5.20
2023-07-08T08:30:21.376Z,4.80
2023-07-08T08:32:49.689Z,4.90
2023-07-08T08:35:17.939Z,4.80
2023-07-08T08:37:46.045Z,4.77
2023-07-08T08:40:19.749Z,4.50
2023-07-08T08:42:55.546Z,4.23
2023-07-08T08:45:26.721Z,4.43
2023-07-08T08:48:00.390Z,5.07
2023-07-08T08:50:32.551Z,4.67
2023-07-08T08:53:04.775Z,5.37
2023-07-08T08:55:33.415Z,4.90
2023-07-08T08:58:12.465Z,5.40
2023-07-08T09:00:49.617Z,4.57
2023-07-08T09:03:20.523Z,4.20
2023-07-08T09:05:49.613Z,4.70
2023-07-08T09:08:25.643Z,4.77
2023-07-08T09:11:02.281Z,6.43
2023-07-08T09:13:35.554Z,4.60
2023-07-08T09:16:09.612Z,4.57
2023-07-08T09:18:46.456Z,4.40
2023-07-08T09:21:21.683Z,4.23
2023-07-08T09:23:52.593Z,3.60
2023-07-08T09:26:24.831Z,4.10
2023-07-08T09:28:54.360Z,5.70
2023-07-08T09:31:26.399Z,4.00
2023-07-08T09:33:56.442Z,4.10
2023-07-08T09:36:26.733Z,4.00
2023-07-08T09:38:55.581Z,4.87
2023-07-08T09:41:35.327Z,5.00
2023-07-08T09:44:16.317Z,4.20
2023-07-08T09:46:45.053Z,3.83
2023-07-08T09:49:23.640Z,3.60
2023-07-08T09:51:52.557Z,4.27
2023-07-08T09:54:21.528Z,5.60
2023-07-08T09:57:00.326Z,4.90
2023-07-08T09:59:35.852Z,4.00
2023-07-08T10:02:18.731Z,4.10
2023-07-08T10:04:46.691Z,3.63
2023-07-08T10:07:19.145Z,3.57
2023-07-08T10:09:50.901Z,3.20
2023-07-08T10:12:19.497Z,4.40
2023-07-08T10:14:54.102Z,3.60
2023-07-08T10:17:23.735Z,4.10
2023-07-08T10:19:52.116Z,3.63
2023-07-08T10:22:37.293Z,3.90
2023-07-08T10:25:19.730Z,3.23
2023-07-08T10:27:54.803Z,2.97
2023-07-08T10:30:27.447Z,3.20
2023-07-08T10:33:22.501Z,3.03
2023-07-08T10:36:12.681Z,3.20
2023-07-08T10:38:57.804Z,3.50
2023-07-08T10:41:38.149Z,2.70
2023-07-08T10:44:14.662Z,3.40
2023-07-08T10:47:03.926Z,2.60
2023-07-08T10:49:43.294Z,2.47
2023-07-08T10:52:27.136Z,2.80
2023-07-08T10:55:07.689Z,3.00
2023-07-08T10:57:54.645Z,2.73
2023-07-08T11:00:30.581Z,3.00
2023-07-08T11:03:22.525Z,3.63
2023-07-08T11:05:58.888Z,3.10
2023-07-08T11:08:31.058Z,3.03
2023-07-08T11:11:14.842Z,2.73
2023-07-08T11:13:50.348Z,3.77
2023-07-08T11:16:26.511Z,2.90
2023-07-08T11:19:03.693Z,3.10
2023-07-08T11:21:37.706Z,3.23
2023-07-08T11:24:13.754Z,2.73
2023-07-08T11:26:48.381Z,3.60
2023-07-08T11:29:21.151Z,3.50
2023-07-08T11:31:51.025Z,3.57
2023-07-08T11:34:22.210Z,3.60
2023-07-08T11:36:51.309Z,3.37
2023-07-08T11:39:31.099Z,3.27
2023-07-08T11:42:13.692Z,3.70
2023-07-08T11:44:45.336Z,4.20
2023-07-08T11:47:18.994Z,3.50
2023-07-08T11:49:49.659Z,3.77
2023-07-08T11:52:21.162Z,3.70
2023-07-08T11:54:56.790Z,4.00
2023-07-08T11:57:32.104Z,4.00
2023-07-08T12:00:17.790Z,4.20
2023-07-08T12:02:56.230Z,4.10
2023-07-08T12:05:36.721Z,3.93
2023-07-08T12:08:13.653Z,3.90
2023-07-08T12:10:44.758Z,3.10
2023-07-08T12:13:16.784Z,3.77
2023-07-08T12:15:44.867Z,3.73
2023-07-08T12:18:17.416Z,4.07
2023-07-08T12:20:50.491Z,4.60
2023-07-08T12:23:22.995Z,3.83
2023-07-08T12:25:52.110Z,3.70
2023-07-08T12:28:21.361Z,4.63
2023-07-08T12:30:50.407Z,4.30
2023-07-08T12:33:24.218Z,4.17
2023-07-08T12:35:54.016Z,4.90
2023-07-08T12:38:29.404Z,4.93
2023-07-08T12:40:59.440Z,3.70
2023-07-08T12:43:28.519Z,3.57
2023-07-08T12:45:56.450Z,2.93
2023-07-08T12:48:24.939Z,3.00
2023-07-08T12:50:54.432Z,3.47
2023-07-08T12:53:22.381Z,3.90
2023-07-08T12:55:54.116Z,2.97
2023-07-08T12:58:28.565Z,4.13
2023-07-08T13:00:59.249Z,3.93
2023-07-08T13:03:31.578Z,3.00
2023-07-08T13:06:03.382Z,3.00
2023-07-08T13:08:40.063Z,3.17
2023-07-08T13:11:09.127Z,3.80
2023-07-08T13:13:40.564Z,3.40
2023-07-08T13:16:11.572Z,3.47
2023-07-08T13:18:42.285Z,4.50
2023-07-08T13:21:15.408Z,3.93
2023-07-08T13:23:43.985Z,5.43
2023-07-08T13:26:16.616Z,3.10
2023-07-08T13:28:46.395Z,3.30
2023-07-08T13:31:22.971Z,3.60
2023-07-08T13:33:54.565Z,2.97
2023-07-08T13:36:25.732Z,3.93
2023-07-08T13:38:54.255Z,3.20
2023-07-08T13:41:24.637Z,3.90
2023-07-08T13:43:53.043Z,3.03
2023-07-08T13:46:32.238Z,3.83
2023-07-08T13:49:04.623Z,3.57
2023-07-08T13:51:35.121Z,4.70
2023-07-08T13:54:11.179Z,3.77
2023-07-08T13:56:39.413Z,4.77
2023-07-08T13:59:09.014Z,3.20
2023-07-08T14:01:41.407Z,2.97
2023-07-08T14:04:11.873Z,5.17
2023-07-08T14:06:42.625Z,3.00
2023-07-08T14:09:16.412Z,2.67
2023-07-08T14:11:44.801Z,3.83
2023-07-08T14:14:13.207Z,4.70
2023-07-08T14:16:44.436Z,3.67
2023-07-08T14:19:17.922Z,3.93
2023-07-08T14:21:47.394Z,3.53
2023-07-08T14:24:16.918Z,3.07
2023-07-08T14:26:46.726Z,3.57
2023-07-08T14:29:15.582Z,5.03
2023-07-08T14:31:44.426Z,5.40
2023-07-08T14:34:19.203Z,5.33
2023-07-08T14:36:48.651Z,8.57
2023-07-08T14:39:18.200Z,3.77
2023-07-08T14:41:48.530Z,4.80
2023-07-08T14:44:23.369Z,3.53
2023-07-08T14:46:52.822Z,3.63
2023-07-08T14:49:22.798Z,2.53
2023-07-08T14:51:53.151Z,2.90
2023-07-08T14:54:22.126Z,2.50
2023-07-08T14:56:51.604Z,2.97
2023-07-08T14:59:23.129Z,3.10
2023-07-08T15:01:51.681Z,2.50
2023-07-08T15:04:20.386Z,3.10
2023-07-08T15:06:48.952Z,2.07
2023-07-08T15:09:19.198Z,5.20
2023-07-08T15:11:48.838Z,3.00
2023-07-08T15:14:21.962Z,2.53
2023-07-08T15:16:51.351Z,3.50
2023-07-08T15:19:19.897Z,4.20
2023-07-08T15:21:48.722Z,2.80
2023-07-08T15:24:18.664Z,2.97
2023-07-08T15:26:48.908Z,3.00
2023-07-08T15:29:19.387Z,3.17
2023-07-08T15:31:47.526Z,3.47
2023-07-08T15:34:16.868Z,3.20
2023-07-08T15:36:44.803Z,2.37
2023-07-08T15:39:14.550Z,2.87
2023-07-08T15:41:45.105Z,2.50
2023-07-08T15:44:14.269Z,2.50
2023-07-08T15:46:43.920Z,3.20
2023-07-08T15:49:16.698Z,2.60
2023-07-08T15:51:47.574Z,2.70
2023-07-08T15:54:17.552Z,2.83
2023-07-08T15:56:48.064Z,2.60
2023-07-08T15:59:19.997Z,3.73
2023-07-08T16:01:47.972Z,2.37
2023-07-08T16:04:24.919Z,2.43
2023-07-08T16:06:53.314Z,3.37
2023-07-08T16:09:21.430Z,2.53
2023-07-08T16:11:50.950Z,2.70
2023-07-08T16:14:20.369Z,2.43
2023-07-08T16:16:48.429Z,2.50
2023-07-08T16:19:17.031Z,3.03
2023-07-08T16:21:47.078Z,2.93
2023-07-08T16:24:15.096Z,2.60
2023-07-08T16:26:43.383Z,3.20
2023-07-08T16:29:18.056Z,2.70
2023-07-08T16:31:46.116Z,2.00
2023-07-08T16:34:15.736Z,3.20
2023-07-08T16:36:43.689Z,2.73
2023-07-08T16:39:11.670Z,2.20
2023-07-08T16:41:39.997Z,3.10
2023-07-08T16:44:17.085Z,2.67
2023-07-08T16:46:45.380Z,2.83
2023-07-08T16:49:13.687Z,4.07
2023-07-08T16:51:41.739Z,3.07
2023-07-08T16:54:15.533Z,3.50
2023-07-08T16:56:43.809Z,7.17
2023-07-08T16:59:13.055Z,3.23
2023-07-08T17:01:42.553Z,2.97
2023-07-08T17:04:13.571Z,3.37
2023-07-08T17:06:41.927Z,2.83
2023-07-08T17:09:12.410Z,2.70
2023-07-08T17:11:40.551Z,2.73
2023-07-08T17:14:10.218Z,2.23
2023-07-08T17:16:39.640Z,2.80
2023-07-08T17:19:11.984Z,2.60
2023-07-08T17:21:40.027Z,2.30
2023-07-08T17:24:11.624Z,3.50
2023-07-08T17:26:39.758Z,3.30
2023-07-08T17:29:07.610Z,5.20
2023-07-08T17:31:47.212Z,2.37
2023-07-08T17:34:22.292Z,2.30
2023-07-08T17:36:50.928Z,2.47
2023-07-08T17:39:19.058Z,2.53
2023-07-08T17:41:50.466Z,2.10
2023-07-08T17:44:18.762Z,3.17
2023-07-08T17:46:47.310Z,2.67
2023-07-08T17:49:16.563Z,2.43
2023-07-08T17:51:45.866Z,3.00
2023-07-08T17:54:15.940Z,2.40
2023-07-08T17:56:48.554Z,2.67
2023-07-08T17:59:19.204Z,4.60
2023-07-08T18:01:47.629Z,3.53
2023-07-08T18:04:15.614Z,3.40
2023-07-08T18:06:47.606Z,3.10
2023-07-08T18:09:15.571Z,3.53
2023-07-08T18:11:46.436Z,4.63
2023-07-08T18:14:15.436Z,3.90
2023-07-08T18:16:45.097Z,3.37
2023-07-08T18:21:57.710Z,4.43
2023-07-08T18:24:25.671Z,5.23
2023-07-08T18:26:53.600Z,4.00
2023-07-08T18:29:22.774Z,4.27
2023-07-08T18:31:51.017Z,4.97
2023-07-08T18:34:21.788Z,4.43
2023-07-08T18:36:49.749Z,5.20
2023-07-08T18:39:20.162Z,7.40
2023-07-08T18:41:49.530Z,6.43
2023-07-08T18:44:26.815Z,4.20
2023-07-08T18:46:55.516Z,4.90
2023-07-08T18:49:25.616Z,8.23
2023-07-08T18:51:54.146Z,5.60
2023-07-08T18:54:24.145Z,6.30
2023-07-08T18:56:52.139Z,4.83
2023-07-08T18:59:20.794Z,7.53
2023-07-08T19:01:50.921Z,9.33
2023-07-08T19:04:24.379Z,8.67
2023-07-08T19:06:52.405Z,8.83
2023-07-08T19:09:20.554Z,6.93
2023-07-08T19:11:50.149Z,9.40
2023-07-08T19:14:19.324Z,7.27
2023-07-08T19:16:47.959Z,13.60
2023-07-08T19:19:17.918Z,9.97
2023-07-08T19:21:46.642Z,10.27
2023-07-08T19:24:32.012Z,10.83
2023-07-08T19:27:06.582Z,12.00
2023-07-08T19:29:34.499Z,9.33
2023-07-08T19:32:02.661Z,7.00
2023-07-08T19:34:32.791Z,7.47
2023-07-08T19:37:00.916Z,12.57
2023-07-08T19:39:28.787Z,11.70
2023-07-08T19:41:56.951Z,9.10
2023-07-08T19:44:27.658Z,10.03
2023-07-08T19:46:56.880Z,10.90
2023-07-08T19:49:25.456Z,21.80
2023-07-08T19:51:53.664Z,22.20
2023-07-08T19:54:22.577Z,12.03
2023-07-08T19:56:50.811Z,14.73
2023-07-08T19:59:19.249Z,15.53
2023-07-08T20:01:48.746Z,11.50
2023-07-08T20:04:17.956Z,10.73
2023-07-08T20:06:46.828Z,9.37
2023-07-08T20:09:16.275Z,8.47
2023-07-08T20:11:44.929Z,10.63
2023-07-08T20:14:13.401Z,9.20
2023-07-08T20:16:43.483Z,16.97
2023-07-08T20:19:21.038Z,15.10
2023-07-08T20:21:49.183Z,19.83
2023-07-08T20:24:17.170Z,20.47
2023-07-08T20:26:45.832Z,8.93
2023-07-08T20:29:18.235Z,8.20
2023-07-08T20:31:46.820Z,13.90
2023-07-08T20:34:18.896Z,13.50
2023-07-08T20:36:48.671Z,13.93
2023-07-08T20:39:22.480Z,9.33
2023-07-08T20:41:50.874Z,10.00
2023-07-08T20:44:20.078Z,8.87
2023-07-08T20:46:49.911Z,7.27
2023-07-08T20:49:19.214Z,8.60
2023-07-08T20:51:48.771Z,7.37
2023-07-08T20:54:16.698Z,7.80
2023-07-08T20:56:45.097Z,7.30
2023-07-08T20:59:17.921Z,8.00
2023-07-08T21:01:46.036Z,6.23
2023-07-08T21:04:14.103Z,6.80
2023-07-08T21:06:42.164Z,6.87
2023-07-08T21:09:14.688Z,5.73
2023-07-08T21:11:42.652Z,6.03
2023-07-08T21:14:10.794Z,6.60
2023-07-08T21:16:39.152Z,5.10
2023-07-08T21:19:07.203Z,5.37
2023-07-08T21:21:35.312Z,5.47
2023-07-08T21:24:03.484Z,5.40
2023-07-08T21:26:34.274Z,4.90
2023-07-08T21:29:04.089Z,5.67
2023-07-08T21:31:32.836Z,5.30
2023-07-08T21:34:00.873Z,5.00
2023-07-08T21:36:33.984Z,4.90
2023-07-08T21:39:05.095Z,4.90
2023-07-08T21:41:35.182Z,4.83
2023-07-08T21:44:03.313Z,5.40
2023-07-08T21:46:31.598Z,5.27
2023-07-08T21:49:00.210Z,5.13
2023-07-08T21:51:31.543Z,5.47
2023-07-08T21:54:00.259Z,4.93
2023-07-08T21:56:28.554Z,5.40
2023-07-08T21:58:58.014Z,5.70
2023-07-08T22:01:28.055Z,4.50
2023-07-08T22:03:57.386Z,4.67
2023-07-08T22:06:26.774Z,5.00
2023-07-08T22:08:55.794Z,5.73
2023-07-08T22:11:30.686Z,4.60
2023-07-08T22:14:00.873Z,5.30
2023-07-08T22:16:30.916Z,5.33
2023-07-08T22:18:59.630Z,4.50
2023-07-08T22:21:30.549Z,4.77
2023-07-08T22:23:59.515Z,4.70
2023-07-08T22:26:28.169Z,4.43
2023-07-08T22:28:56.378Z,5.00
2023-07-08T22:31:29.695Z,5.40
2023-07-08T22:33:58.088Z,3.97
2023-07-08T22:36:26.226Z,4.43
2023-07-08T22:39:01.783Z,5.97
2023-07-08T22:41:32.964Z,4.50
2023-07-08T22:44:01.044Z,4.27
2023-07-08T22:46:30.445Z,5.40
2023-07-08T22:49:01.583Z,4.13
2023-07-08T22:51:32.964Z,4.57
2023-07-08T22:54:01.097Z,4.87
2023-07-08T22:56:29.059Z,4.20
2023-07-08T22:58:56.938Z,4.50
2023-07-08T23:01:24.848Z,5.10
2023-07-08T23:03:54.139Z,4.97
2023-07-08T23:06:25.896Z,4.03
2023-07-08T23:08:54.074Z,4.20
2023-07-08T23:11:22.842Z,5.47
2023-07-08T23:13:51.304Z,4.77
2023-07-08T23:16:31.216Z,5.77
2023-07-08T23:19:02.538Z,4.83
2023-07-08T23:21:31.523Z,4.97
2023-07-08T23:23:59.726Z,4.97
2023-07-08T23:26:31.532Z,4.43
2023-07-08T23:29:01.005Z,4.20
2023-07-08T23:31:30.919Z,4.30
2023-07-08T23:34:01.230Z,4.60
2023-07-08T23:36:34.897Z,4.40
2023-07-08T23:39:06.672Z,4.23
2023-07-08T23:41:34.753Z,4.17
2023-07-08T23:44:02.828Z,4.47
2023-07-08T23:46:33.091Z,4.50
2023-07-08T23:49:05.828Z,5.20
2023-07-08T23:51:33.919Z,3.97
2023-07-08T23:54:01.866Z,4.57
2023-07-08T23:56:34.552Z,5.10
2023-07-08T23:59:04.424Z,4.20
